Time;durP1;ratioP1;P1;durP2;ratioP2;P2;SDS_P1;SDS_P2;PMS_P1;PMS_P2;Temp;Humidity;BMP_temperature;BMP_pressure;BME280_temperature;BME280_humidity;BME280_pressure;Samples;Min_cycle;Max_cycle;Signal;HPM_P1;HPM_P2
2022/07/17 00:00:08;;;;;;;41.25;28.15;;;;;;;;;;1662005;29;22422;-58
2022/07/17 00:01:00;;;;;;;42.85;28.00;;;;;;;;;;1661987;29;21581;-57
2022/07/17 00:01:51;;;;;;;42.05;27.88;;;;;;;;;;1662581;29;21644;-58
2022/07/17 00:02:44;;;;;;;44.40;26.98;;;;;;;;;;1661862;29;21619;-57
2022/07/17 00:03:36;;;;;;;39.75;25.98;;;;;;;;;;1663521;29;21766;-58
2022/07/17 00:04:29;;;;;;;39.88;24.92;;;;;;;;;;1662058;29;22323;-58
2022/07/17 00:05:20;;;;;;;38.88;24.48;;;;;;;;;;1662611;29;22417;-58
2022/07/17 00:06:13;;;;;;;36.65;24.02;;;;;;;;;;1661959;29;21641;-57
2022/07/17 00:07:05;;;;;;;34.90;23.33;;;;;;;;;;1663926;29;21609;-59
2022/07/17 00:07:56;;;;;;;41.20;23.80;;;;;;;;;;1661425;29;22550;-57
2022/07/17 00:08:48;;;;;;;33.63;22.60;;;;;;;;;;1661756;29;22847;-58
2022/07/17 00:09:39;;;;;;;35.70;22.23;;;;;;;;;;1662489;29;21974;-58
2022/07/17 00:10:32;;;;;;;48.38;22.20;;;;;;;;;;1662387;29;22449;-57
2022/07/17 00:11:23;;;;;;;35.13;21.75;;;;;;;;;;1661710;29;21748;-58
2022/07/17 00:12:15;;;;;;;32.67;20.60;;;;;;;;;;1662528;29;21664;-58
2022/07/17 00:13:06;;;;;;;31.05;19.50;;;;;;;;;;1662292;29;22244;-57
2022/07/17 00:13:59;;;;;;;32.08;20.25;;;;;;;;;;1662002;29;21827;-57
2022/07/17 00:14:50;;;;;;;33.05;19.75;;;;;;;;;;1662618;29;22152;-58
2022/07/17 00:15:42;;;;;;;29.95;18.52;;;;;;;;;;1662698;29;22450;-57
2022/07/17 00:16:33;;;;;;;29.17;18.63;;;;;;;;;;1662011;29;21690;-58
2022/07/17 00:17:26;;;;;;;29.52;18.23;;;;;;;;;;1662133;29;21796;-58
2022/07/17 00:18:17;;;;;;;25.58;18.13;;;;;;;;;;1661977;29;22034;-58
2022/07/17 00:19:11;;;;;;;30.15;17.40;;;;;;;;;;1663418;29;22528;-58
2022/07/17 00:20:03;;;;;;;21.80;17.02;;;;;;;;;;1662356;29;21598;-58
2022/07/17 00:20:55;;;;;;;28.08;16.92;;;;;;;;;;1662465;29;21673;-58
2022/07/17 00:21:46;;;;;;;26.23;18.17;;;;;;;;;;1663311;29;21694;-58
2022/07/17 00:22:38;;;;;;;25.27;16.38;;;;;;;;;;1662373;29;21653;-58
2022/07/17 00:23:30;;;;;;;20.67;15.88;;;;;;;;;;1661811;29;22290;-58
2022/07/17 00:24:22;;;;;;;24.70;15.60;;;;;;;;;;1661776;29;22394;-57
2022/07/17 00:25:14;;;;;;;23.88;16.15;;;;;;;;;;1662479;29;21615;-58
2022/07/17 00:26:06;;;;;;;27.38;16.15;;;;;;;;;;1662574;29;22009;-58
2022/07/17 00:26:58;;;;;;;20.85;14.65;;;;;;;;;;1662451;29;22721;-58
2022/07/17 00:27:50;;;;;;;21.48;15.02;;;;;;;;;;1660903;29;21681;-57
2022/07/17 00:28:41;;;;;;;24.33;15.98;;;;;;;;;;1662217;29;21972;-59
2022/07/17 00:29:34;;;;;;;23.02;14.13;;;;;;;;;;1662366;29;21929;-58
2022/07/17 00:30:25;;;;;;;19.02;13.85;;;;;;;;;;1661002;29;21680;-58
2022/07/17 00:31:17;;;;;;;18.13;14.32;;;;;;;;;;1662351;29;22605;-58
2022/07/17 00:32:08;;;;;;;19.08;13.93;;;;;;;;;;1655465;29;21671;-59
2022/07/17 00:33:01;;;;;;;20.05;14.10;;;;;;;;;;1655198;29;22701;-58
2022/07/17 00:33:52;;;;;;;17.33;13.48;;;;;;;;;;1659999;29;21603;-58
2022/07/17 00:34:45;;;;;;;21.55;14.07;;;;;;;;;;1662486;29;22372;-58
2022/07/17 00:35:37;;;;;;;19.58;13.75;;;;;;;;;;1661799;29;21627;-58
2022/07/17 00:36:29;;;;;;;18.27;13.55;;;;;;;;;;1661931;29;22624;-58
2022/07/17 00:37:20;;;;;;;22.63;13.32;;;;;;;;;;1662333;29;22213;-58
2022/07/17 00:38:13;;;;;;;14.80;13.10;;;;;;;;;;1659925;29;21926;-58
2022/07/17 00:39:04;;;;;;;20.83;12.10;;;;;;;;;;1661971;29;22462;-58
2022/07/17 00:39:57;;;;;;;14.70;13.15;;;;;;;;;;1656114;29;21812;-58
2022/07/17 00:40:48;;;;;;;16.65;12.70;;;;;;;;;;1661574;29;22413;-58
2022/07/17 00:41:40;;;;;;;14.02;12.50;;;;;;;;;;1662335;29;22474;-58
2022/07/17 00:42:31;;;;;;;19.35;12.45;;;;;;;;;;1662099;29;21709;-58
2022/07/17 00:43:24;;;;;;;13.95;12.10;;;;;;;;;;1661535;29;21799;-58
2022/07/17 00:44:15;;;;;;;12.20;10.90;;;;;;;;;;1662120;29;21652;-58
2022/07/17 00:45:09;;;;;;;12.77;10.90;;;;;;;;;;1662455;29;21624;-58
2022/07/17 00:46:02;;;;;;;13.02;10.95;;;;;;;;;;1662605;29;22085;-57
2022/07/17 00:46:55;;;;;;;14.55;10.73;;;;;;;;;;1661880;29;21598;-59
2022/07/17 00:47:54;;;;;;;11.65;10.32;;;;;;;;;;1661341;29;22076;-58
2022/07/17 00:48:46;;;;;;;12.68;10.30;;;;;;;;;;1659942;29;21620;-58
2022/07/17 00:49:37;;;;;;;13.13;10.55;;;;;;;;;;1662018;29;21622;-59
2022/07/17 00:50:34;;;;;;;11.10;9.57;;;;;;;;;;1661775;29;21801;-58
2022/07/17 00:51:25;;;;;;;10.80;9.70;;;;;;;;;;1661496;29;21621;-58
2022/07/17 00:52:18;;;;;;;10.40;9.30;;;;;;;;;;1661790;29;21835;-58
2022/07/17 00:53:10;;;;;;;9.35;8.55;;;;;;;;;;1662264;29;22118;-58
2022/07/17 00:54:04;;;;;;;9.23;8.40;;;;;;;;;;1661694;29;22452;-58
2022/07/17 00:54:58;;;;;;;9.23;8.32;;;;;;;;;;1654503;29;21935;-58
2022/07/17 00:55:51;;;;;;;8.45;7.65;;;;;;;;;;1655209;29;21809;-57
2022/07/17 00:56:46;;;;;;;10.95;8.55;;;;;;;;;;1660062;29;21680;-58
2022/07/17 00:57:41;;;;;;;8.02;7.40;;;;;;;;;;1661197;29;22569;-58
2022/07/17 00:58:36;;;;;;;8.27;7.57;;;;;;;;;;1661095;29;21626;-58
2022/07/17 00:59:29;;;;;;;7.78;6.90;;;;;;;;;;1662003;29;22720;-58
2022/07/17 01:00:21;;;;;;;7.82;7.15;;;;;;;;;;1661427;29;21692;-58
2022/07/17 01:01:14;;;;;;;7.70;7.00;;;;;;;;;;1662308;29;21635;-59
2022/07/17 01:02:06;;;;;;;8.30;7.43;;;;;;;;;;1662452;29;22482;-57
2022/07/17 01:02:58;;;;;;;7.05;6.45;;;;;;;;;;1657037;29;22339;-58
2022/07/17 01:03:50;;;;;;;7.03;6.07;;;;;;;;;;1656590;29;22210;-58
2022/07/17 01:04:41;;;;;;;6.90;6.38;;;;;;;;;;1655387;29;21615;-58
2022/07/17 01:05:35;;;;;;;6.60;6.03;;;;;;;;;;1659106;29;21634;-58
2022/07/17 01:06:26;;;;;;;6.68;6.07;;;;;;;;;;1661147;29;21688;-59
2022/07/17 01:07:18;;;;;;;6.30;5.80;;;;;;;;;;1662211;29;22000;-57
2022/07/17 01:08:10;;;;;;;6.20;5.63;;;;;;;;;;1660934;29;21956;-58
2022/07/17 01:09:02;;;;;;;6.72;6.07;;;;;;;;;;1662221;29;22061;-58
2022/07/17 01:09:53;;;;;;;5.72;5.30;;;;;;;;;;1662747;29;21897;-58
2022/07/17 01:10:46;;;;;;;6.55;5.60;;;;;;;;;;1661149;29;22059;-58
2022/07/17 01:11:37;;;;;;;5.63;5.13;;;;;;;;;;1661825;29;21744;-58
2022/07/17 01:12:30;;;;;;;9.25;5.55;;;;;;;;;;1661780;29;21996;-58
2022/07/17 01:13:21;;;;;;;6.22;5.65;;;;;;;;;;1661446;29;22423;-58
2022/07/17 01:14:14;;;;;;;6.00;5.50;;;;;;;;;;1661993;29;21856;-58
2022/07/17 01:15:07;;;;;;;4.88;4.47;;;;;;;;;;1662087;29;21999;-57
2022/07/17 01:15:59;;;;;;;4.78;4.43;;;;;;;;;;1663450;29;21942;-58
2022/07/17 01:16:52;;;;;;;5.07;4.60;;;;;;;;;;1661883;29;21739;-58
2022/07/17 01:17:44;;;;;;;5.22;4.82;;;;;;;;;;1661724;29;22004;-58
2022/07/17 01:18:35;;;;;;;4.88;4.47;;;;;;;;;;1661954;29;21622;-58
2022/07/17 01:19:28;;;;;;;5.20;4.65;;;;;;;;;;1661296;29;21761;-58
2022/07/17 01:20:19;;;;;;;4.70;4.30;;;;;;;;;;1662214;29;22325;-58
2022/07/17 01:21:13;;;;;;;4.30;4.00;;;;;;;;;;1662229;29;21912;-58
2022/07/17 01:22:04;;;;;;;4.22;3.92;;;;;;;;;;1661789;29;22581;-57
2022/07/17 01:22:57;;;;;;;4.40;4.05;;;;;;;;;;1661943;29;21758;-58
2022/07/17 01:23:49;;;;;;;3.70;3.40;;;;;;;;;;1661826;29;21783;-58
2022/07/17 01:24:41;;;;;;;4.45;4.05;;;;;;;;;;1661386;29;22547;-58
2022/07/17 01:25:33;;;;;;;5.40;3.85;;;;;;;;;;1654851;29;21984;-57
2022/07/17 01:26:25;;;;;;;4.03;3.72;;;;;;;;;;1654594;29;21617;-58
2022/07/17 01:27:17;;;;;;;4.00;3.70;;;;;;;;;;1659761;29;21600;-58
2022/07/17 01:28:09;;;;;;;5.97;3.60;;;;;;;;;;1661190;29;21614;-57
2022/07/17 01:29:00;;;;;;;4.72;3.88;;;;;;;;;;1661190;29;21645;-59
2022/07/17 01:29:52;;;;;;;3.83;3.53;;;;;;;;;;1662067;29;21855;-58
2022/07/17 01:30:48;;;;;;;4.20;3.28;;;;;;;;;;1661501;29;21649;-58
2022/07/17 01:31:42;;;;;;;3.70;3.38;;;;;;;;;;1661510;29;22286;-57
2022/07/17 01:32:35;;;;;;;3.42;3.13;;;;;;;;;;1662098;29;21644;-58
2022/07/17 01:33:27;;;;;;;3.83;3.50;;;;;;;;;;1662180;29;21875;-59
2022/07/17 01:34:18;;;;;;;3.33;3.13;;;;;;;;;;1661443;29;23396;-58
2022/07/17 01:35:13;;;;;;;3.05;2.78;;;;;;;;;;1662012;29;22126;-58
2022/07/17 01:36:05;;;;;;;3.47;2.90;;;;;;;;;;1661425;29;21808;-58
2022/07/17 01:36:59;;;;;;;3.38;3.17;;;;;;;;;;1661341;29;21984;-58
2022/07/17 01:37:50;;;;;;;3.30;2.75;;;;;;;;;;1661387;29;21643;-58
2022/07/17 01:38:42;;;;;;;5.65;2.90;;;;;;;;;;1661200;29;21707;-58
2022/07/17 01:40:44;;;;;;;2.72;2.53;;;;;;;;;;1662142;29;21863;-58
2022/07/17 01:41:35;;;;;;;5.40;4.10;;;;;;;;;;1654256;29;21867;-58
2022/07/17 01:42:29;;;;;;;2.65;2.45;;;;;;;;;;1654197;29;21722;-58
2022/07/17 01:43:20;;;;;;;3.50;2.75;;;;;;;;;;1660701;29;21974;-58
2022/07/17 01:44:12;;;;;;;2.58;2.30;;;;;;;;;;1661455;29;22019;-58
2022/07/17 01:45:05;;;;;;;3.00;2.80;;;;;;;;;;1662174;29;21618;-58
2022/07/17 01:45:57;;;;;;;2.50;2.30;;;;;;;;;;1662062;29;21609;-57
2022/07/17 01:46:48;;;;;;;2.90;2.60;;;;;;;;;;1661741;29;21659;-58
2022/07/17 01:47:41;;;;;;;2.53;2.33;;;;;;;;;;1660827;29;21659;-57
2022/07/17 01:48:32;;;;;;;2.60;2.40;;;;;;;;;;1661246;29;21740;-58
2022/07/17 01:49:24;;;;;;;2.50;2.30;;;;;;;;;;1661281;29;22434;-57
2022/07/17 01:50:16;;;;;;;2.63;2.42;;;;;;;;;;1661501;29;22052;-58
2022/07/17 01:51:08;;;;;;;2.03;1.92;;;;;;;;;;1662101;29;22015;-58
2022/07/17 01:52:01;;;;;;;4.00;1.95;;;;;;;;;;1661951;29;21861;-58
2022/07/17 01:52:53;;;;;;;1.90;1.80;;;;;;;;;;1659452;29;21651;-58
2022/07/17 01:53:45;;;;;;;2.40;2.20;;;;;;;;;;1661919;29;21692;-58
2022/07/17 01:54:37;;;;;;;1.98;1.88;;;;;;;;;;1661992;29;21747;-58
2022/07/17 01:55:28;;;;;;;1.90;1.80;;;;;;;;;;1661197;29;22496;-58
2022/07/17 01:56:21;;;;;;;1.95;1.85;;;;;;;;;;1662136;29;21929;-58
2022/07/17 01:57:12;;;;;;;1.77;1.67;;;;;;;;;;1661928;29;21649;-58
2022/07/17 01:58:06;;;;;;;1.90;1.80;;;;;;;;;;1661185;29;22659;-58
2022/07/17 01:58:57;;;;;;;2.05;1.92;;;;;;;;;;1662130;29;21892;-57
2022/07/17 01:59:49;;;;;;;2.20;2.08;;;;;;;;;;1661833;29;21649;-58
2022/07/17 02:00:41;;;;;;;2.33;2.13;;;;;;;;;;1661313;29;21650;-59
2022/07/17 02:01:33;;;;;;;2.13;2.00;;;;;;;;;;1661833;29;22450;-57
2022/07/17 02:02:24;;;;;;;2.75;1.90;;;;;;;;;;1661367;29;22074;-58
2022/07/17 02:03:17;;;;;;;2.88;1.50;;;;;;;;;;1661155;29;22360;-58
2022/07/17 02:04:08;;;;;;;2.00;1.90;;;;;;;;;;1654930;29;21628;-58
2022/07/17 02:05:00;;;;;;;2.38;1.98;;;;;;;;;;1654883;29;21825;-57
2022/07/17 02:05:51;;;;;;;2.88;1.88;;;;;;;;;;1659182;29;21621;-58
2022/07/17 02:06:44;;;;;;;3.80;1.70;;;;;;;;;;1662018;29;21608;-58
2022/07/17 02:07:39;;;;;;;1.98;1.77;;;;;;;;;;1661739;29;22326;-58
2022/07/17 02:08:31;;;;;;;1.60;1.50;;;;;;;;;;1658524;29;22104;-58
2022/07/17 02:09:23;;;;;;;1.90;1.70;;;;;;;;;;1661440;29;21801;-58
2022/07/17 02:10:15;;;;;;;1.95;1.48;;;;;;;;;;1661918;29;22347;-58
2022/07/17 02:11:06;;;;;;;1.92;1.73;;;;;;;;;;1661741;29;21667;-58
2022/07/17 02:11:59;;;;;;;1.80;1.70;;;;;;;;;;1662004;29;21770;-59
2022/07/17 02:12:50;;;;;;;2.00;1.55;;;;;;;;;;1661796;29;21715;-58
2022/07/17 02:13:43;;;;;;;1.60;1.50;;;;;;;;;;1657887;29;21806;-57
2022/07/17 02:14:35;;;;;;;2.72;1.40;;;;;;;;;;1662032;29;22025;-58
2022/07/17 02:15:27;;;;;;;1.67;1.58;;;;;;;;;;1662685;29;21777;-58
2022/07/17 02:16:19;;;;;;;1.70;1.60;;;;;;;;;;1661637;29;21651;-58
2022/07/17 02:17:11;;;;;;;1.48;1.38;;;;;;;;;;1662057;29;21647;-58
2022/07/17 02:18:02;;;;;;;1.67;1.58;;;;;;;;;;1661120;29;22285;-58
2022/07/17 02:18:54;;;;;;;1.65;1.55;;;;;;;;;;1661212;29;21883;-58
2022/07/17 02:19:45;;;;;;;1.38;1.27;;;;;;;;;;1661428;29;21677;-57
2022/07/17 02:20:38;;;;;;;1.33;1.23;;;;;;;;;;1655592;29;22360;-59
2022/07/17 02:21:29;;;;;;;1.35;1.25;;;;;;;;;;1661820;29;21641;-58
2022/07/17 02:22:21;;;;;;;1.80;1.70;;;;;;;;;;1661269;29;22425;-58
2022/07/17 02:23:14;;;;;;;1.15;1.08;;;;;;;;;;1662969;29;21603;-58
2022/07/17 02:24:07;;;;;;;1.10;1.10;;;;;;;;;;1663447;29;21592;-59
2022/07/17 02:24:58;;;;;;;4.75;1.40;;;;;;;;;;1662745;29;21609;-57
2022/07/17 02:25:50;;;;;;;1.40;1.30;;;;;;;;;;1664364;29;21819;-58
2022/07/17 02:26:42;;;;;;;1.90;1.35;;;;;;;;;;1663030;29;22459;-58
2022/07/17 02:27:34;;;;;;;3.15;1.27;;;;;;;;;;1662561;29;21640;-58
2022/07/17 02:28:25;;;;;;;1.20;1.10;;;;;;;;;;1661118;29;22319;-58
2022/07/17 02:29:17;;;;;;;2.28;1.20;;;;;;;;;;1663162;29;22309;-58
2022/07/17 02:30:13;;;;;;;2.85;1.33;;;;;;;;;;1662672;29;21655;-58
2022/07/17 02:31:05;;;;;;;1.35;1.23;;;;;;;;;;1663044;29;22297;-57
2022/07/17 02:31:56;;;;;;;1.85;1.30;;;;;;;;;;1657009;29;21892;-58
2022/07/17 02:32:49;;;;;;;2.95;0.95;;;;;;;;;;1661947;29;21966;-58
2022/07/17 02:33:40;;;;;;;1.45;1.27;;;;;;;;;;1662650;29;21751;-58
2022/07/17 02:34:32;;;;;;;1.15;1.05;;;;;;;;;;1662948;29;21748;-58
2022/07/17 02:35:24;;;;;;;1.30;1.17;;;;;;;;;;1663038;29;21655;-58
2022/07/17 02:36:16;;;;;;;1.05;1.05;;;;;;;;;;1662641;29;21667;-58
2022/07/17 02:37:07;;;;;;;1.40;1.30;;;;;;;;;;1663171;29;22440;-58
2022/07/17 02:37:59;;;;;;;1.92;1.27;;;;;;;;;;1662056;29;22525;-58
2022/07/17 02:38:53;;;;;;;1.00;1.00;;;;;;;;;;1662435;29;22751;-58
2022/07/17 02:39:53;;;;;;;1.98;1.38;;;;;;;;;;1663024;29;21717;-58
2022/07/17 02:40:44;;;;;;;1.87;1.40;;;;;;;;;;1662731;29;22484;-58
2022/07/17 02:41:36;;;;;;;2.30;1.08;;;;;;;;;;1662675;29;22633;-58
2022/07/17 02:42:29;;;;;;;1.27;1.17;;;;;;;;;;1662441;29;22585;-58
2022/07/17 02:43:21;;;;;;;2.72;0.90;;;;;;;;;;1662539;29;21674;-58
2022/07/17 02:44:12;;;;;;;1.25;0.80;;;;;;;;;;1662699;29;21656;-58
2022/07/17 02:45:07;;;;;;;1.38;1.27;;;;;;;;;;1663052;29;22798;-58
2022/07/17 02:45:58;;;;;;;1.27;1.17;;;;;;;;;;1662824;29;22596;-58
2022/07/17 02:46:50;;;;;;;1.15;1.00;;;;;;;;;;1662296;29;21669;-59
2022/07/17 02:47:42;;;;;;;1.10;0.90;;;;;;;;;;1662354;29;22397;-58
2022/07/17 02:48:33;;;;;;;2.28;1.33;;;;;;;;;;1662761;29;21818;-58
2022/07/17 02:49:25;;;;;;;1.30;1.20;;;;;;;;;;1661660;29;22515;-57
2022/07/17 02:50:16;;;;;;;2.28;1.02;;;;;;;;;;1662917;29;22045;-58
2022/07/17 02:51:09;;;;;;;1.17;1.00;;;;;;;;;;1663075;29;21708;-58
2022/07/17 02:52:00;;;;;;;0.90;0.90;;;;;;;;;;1662408;29;22143;-58
2022/07/17 02:52:52;;;;;;;1.02;1.00;;;;;;;;;;1662669;29;21745;-58
2022/07/17 02:53:44;;;;;;;1.98;1.27;;;;;;;;;;1664553;29;22003;-59
2022/07/17 02:54:36;;;;;;;0.98;0.90;;;;;;;;;;1662464;29;21607;-58
2022/07/17 02:55:29;;;;;;;1.00;1.00;;;;;;;;;;1662459;29;22137;-58
2022/07/17 02:56:20;;;;;;;0.80;0.80;;;;;;;;;;1656958;29;22540;-58
2022/07/17 02:57:12;;;;;;;1.00;0.90;;;;;;;;;;1655990;29;21609;-58
2022/07/17 02:58:03;;;;;;;1.80;1.00;;;;;;;;;;1660109;29;21971;-57
2022/07/17 02:58:56;;;;;;;1.10;0.95;;;;;;;;;;1655801;29;21605;-58
2022/07/17 02:59:47;;;;;;;1.00;1.00;;;;;;;;;;1657256;29;21612;-58
2022/07/17 03:00:40;;;;;;;0.90;0.90;;;;;;;;;;1654277;29;21593;-58
2022/07/17 03:01:31;;;;;;;0.80;0.80;;;;;;;;;;1655790;29;21878;-58
2022/07/17 03:02:23;;;;;;;2.35;1.10;;;;;;;;;;1659903;29;21650;-58
2022/07/17 03:03:14;;;;;;;1.35;1.25;;;;;;;;;;1662045;29;21874;-58
2022/07/17 03:04:07;;;;;;;1.65;0.82;;;;;;;;;;1663018;29;21615;-58
2022/07/17 03:04:58;;;;;;;1.08;0.90;;;;;;;;;;1662786;29;21642;-58
2022/07/17 03:05:50;;;;;;;0.95;0.93;;;;;;;;;;1661808;29;21865;-58
2022/07/17 03:06:41;;;;;;;0.90;0.90;;;;;;;;;;1662755;29;21614;-58
2022/07/17 03:07:34;;;;;;;2.70;1.02;;;;;;;;;;1656638;29;21576;-58
2022/07/17 03:08:25;;;;;;;0.93;0.82;;;;;;;;;;1654157;29;21650;-58
2022/07/17 03:09:17;;;;;;;1.10;1.00;;;;;;;;;;1660097;29;21597;-58
2022/07/17 03:10:10;;;;;;;0.93;0.93;;;;;;;;;;1663013;29;21728;-58
2022/07/17 03:11:03;;;;;;;1.02;1.02;;;;;;;;;;1663980;29;21674;-58
2022/07/17 03:11:54;;;;;;;0.90;0.90;;;;;;;;;;1662724;29;21976;-58
2022/07/17 03:12:46;;;;;;;1.15;1.00;;;;;;;;;;1662167;29;21653;-58
2022/07/17 03:13:37;;;;;;;0.93;0.80;;;;;;;;;;1662954;29;22265;-59
2022/07/17 03:14:30;;;;;;;2.17;1.02;;;;;;;;;;1663974;29;21580;-58
2022/07/17 03:15:21;;;;;;;1.00;1.00;;;;;;;;;;1662045;29;22478;-57
2022/07/17 03:16:13;;;;;;;0.90;0.85;;;;;;;;;;1662670;29;21699;-58
2022/07/17 03:17:05;;;;;;;1.00;0.90;;;;;;;;;;1663065;29;21593;-58
2022/07/17 03:17:57;;;;;;;1.13;1.02;;;;;;;;;;1662174;29;22298;-58
2022/07/17 03:18:48;;;;;;;1.30;0.98;;;;;;;;;;1662913;29;21615;-58
2022/07/17 03:19:41;;;;;;;0.90;0.88;;;;;;;;;;1663046;29;21676;-59
2022/07/17 03:20:32;;;;;;;1.52;0.90;;;;;;;;;;1662345;29;21699;-58
2022/07/17 03:21:24;;;;;;;0.82;0.82;;;;;;;;;;1660670;29;21800;-57
2022/07/17 03:22:15;;;;;;;1.35;1.10;;;;;;;;;;1662993;29;21630;-58
2022/07/17 03:23:08;;;;;;;0.90;0.90;;;;;;;;;;1662205;29;21778;-58
2022/07/17 03:23:59;;;;;;;1.25;0.93;;;;;;;;;;1662705;29;21919;-58
2022/07/17 03:24:51;;;;;;;0.88;0.88;;;;;;;;;;1656677;29;22261;-58
2022/07/17 03:25:44;;;;;;;1.10;0.98;;;;;;;;;;1661999;29;21614;-58
2022/07/17 03:26:36;;;;;;;1.00;0.93;;;;;;;;;;1662816;29;22563;-58
2022/07/17 03:27:27;;;;;;;0.77;0.77;;;;;;;;;;1661736;29;22052;-58
2022/07/17 03:28:20;;;;;;;0.80;0.77;;;;;;;;;;1661989;29;21603;-58
2022/07/17 03:29:11;;;;;;;1.35;0.70;;;;;;;;;;1662625;29;21699;-58
2022/07/17 03:30:04;;;;;;;1.00;0.80;;;;;;;;;;1662442;29;21840;-57
2022/07/17 03:30:55;;;;;;;0.90;0.90;;;;;;;;;;1662285;29;21630;-58
2022/07/17 03:31:48;;;;;;;0.90;0.90;;;;;;;;;;1662857;29;21758;-57
2022/07/17 03:32:39;;;;;;;2.17;1.05;;;;;;;;;;1662575;29;21638;-58
2022/07/17 03:33:31;;;;;;;0.82;0.82;;;;;;;;;;1661045;29;21631;-58
2022/07/17 03:34:22;;;;;;;1.20;1.10;;;;;;;;;;1661219;29;21667;-58
2022/07/17 03:35:14;;;;;;;0.80;0.80;;;;;;;;;;1663827;29;22565;-58
2022/07/17 03:36:08;;;;;;;1.02;1.00;;;;;;;;;;1662077;29;21648;-58
2022/07/17 03:36:59;;;;;;;1.63;1.10;;;;;;;;;;1663750;29;21601;-58
2022/07/17 03:37:51;;;;;;;1.33;0.98;;;;;;;;;;1661668;29;21597;-57
2022/07/17 03:38:42;;;;;;;1.20;1.10;;;;;;;;;;1655785;29;21689;-58
2022/07/17 03:39:35;;;;;;;1.48;1.17;;;;;;;;;;1655820;29;21592;-58
2022/07/17 03:40:26;;;;;;;1.20;1.10;;;;;;;;;;1659878;29;21987;-57
2022/07/17 03:41:20;;;;;;;1.17;1.02;;;;;;;;;;1662280;29;22662;-58
2022/07/17 03:42:11;;;;;;;1.05;0.98;;;;;;;;;;1660078;29;21638;-58
2022/07/17 03:43:03;;;;;;;1.58;1.20;;;;;;;;;;1663984;29;21688;-59
2022/07/17 03:43:54;;;;;;;1.52;1.23;;;;;;;;;;1662045;29;22288;-58
2022/07/17 03:44:46;;;;;;;2.40;0.95;;;;;;;;;;1662650;29;21584;-59
2022/07/17 03:45:38;;;;;;;1.33;1.20;;;;;;;;;;1662611;29;21854;-58
2022/07/17 03:46:29;;;;;;;2.38;1.27;;;;;;;;;;1663416;29;22124;-58
2022/07/17 03:47:21;;;;;;;1.08;0.98;;;;;;;;;;1662583;29;21711;-58
2022/07/17 03:48:13;;;;;;;1.38;1.27;;;;;;;;;;1661977;29;21672;-58
2022/07/17 03:49:05;;;;;;;2.35;1.52;;;;;;;;;;1662043;29;21723;-57
2022/07/17 03:49:56;;;;;;;1.40;1.20;;;;;;;;;;1662388;29;21673;-58
2022/07/17 03:50:48;;;;;;;0.93;0.93;;;;;;;;;;1662690;29;21703;-58
2022/07/17 03:51:40;;;;;;;1.73;1.13;;;;;;;;;;1658240;29;22392;-58
2022/07/17 03:52:32;;;;;;;1.40;1.30;;;;;;;;;;1662145;29;22574;-58
2022/07/17 03:53:23;;;;;;;1.35;1.20;;;;;;;;;;1662328;29;21602;-58
2022/07/17 03:54:15;;;;;;;1.70;1.60;;;;;;;;;;1662156;29;22734;-58
2022/07/17 03:55:08;;;;;;;1.50;1.40;;;;;;;;;;1662518;29;21618;-58
2022/07/17 03:56:00;;;;;;;2.35;1.67;;;;;;;;;;1662435;29;21572;-57
2022/07/17 03:56:53;;;;;;;1.48;1.38;;;;;;;;;;1662775;29;21643;-58
2022/07/17 03:57:45;;;;;;;1.50;1.40;;;;;;;;;;1661215;29;21664;-58
2022/07/17 03:58:36;;;;;;;1.50;1.40;;;;;;;;;;1662612;29;21625;-58
2022/07/17 03:59:29;;;;;;;3.17;1.40;;;;;;;;;;1662292;29;21586;-58
2022/07/17 04:00:20;;;;;;;2.15;1.60;;;;;;;;;;1662168;29;21688;-58
2022/07/17 04:01:12;;;;;;;1.30;1.20;;;;;;;;;;1663969;29;21626;-58
2022/07/17 04:02:04;;;;;;;3.35;1.38;;;;;;;;;;1662757;29;22011;-58
2022/07/17 04:02:56;;;;;;;1.35;1.25;;;;;;;;;;1662235;29;21611;-59
2022/07/17 04:03:47;;;;;;;1.40;1.30;;;;;;;;;;1660844;29;21901;-58
2022/07/17 04:04:39;;;;;;;1.65;1.13;;;;;;;;;;1662664;29;21606;-58
2022/07/17 04:05:30;;;;;;;1.67;1.38;;;;;;;;;;1662948;29;21598;-58
2022/07/17 04:06:23;;;;;;;1.70;1.55;;;;;;;;;;1661998;29;21677;-58
2022/07/17 04:07:26;;;;;;;1.42;1.33;;;;;;;;;;1656258;29;21649;-58
2022/07/17 04:08:19;;;;;;;1.50;1.40;;;;;;;;;;1659835;29;22197;-58
2022/07/17 04:09:10;;;;;;;1.98;1.30;;;;;;;;;;1662496;29;22396;-58
2022/07/17 04:10:02;;;;;;;1.73;1.38;;;;;;;;;;1662286;29;21643;-57
2022/07/17 04:10:54;;;;;;;1.73;1.63;;;;;;;;;;1662133;29;21606;-58
2022/07/17 04:11:46;;;;;;;1.35;1.10;;;;;;;;;;1662436;29;21574;-58
2022/07/17 04:12:39;;;;;;;1.63;1.23;;;;;;;;;;1663172;29;22454;-57
2022/07/17 04:13:31;;;;;;;2.55;1.40;;;;;;;;;;1661631;29;21637;-57
2022/07/17 04:14:22;;;;;;;1.67;1.45;;;;;;;;;;1662063;29;21671;-57
2022/07/17 04:15:48;;;;;;;1.42;1.25;;;;;;;;;;1662651;29;21930;-59
2022/07/17 04:16:26;;;;;;;3.88;1.30;;;;;;;;;;1661807;29;22723;-58
2022/07/17 04:17:18;;;;;;;1.63;1.50;;;;;;;;;;1662263;29;21640;-58
2022/07/17 04:18:09;;;;;;;2.42;1.50;;;;;;;;;;1661756;29;22092;-58
2022/07/17 04:19:02;;;;;;;2.28;1.92;;;;;;;;;;1662109;29;21671;-58
2022/07/17 04:19:53;;;;;;;1.75;1.52;;;;;;;;;;1662611;29;21666;-58
2022/07/17 04:20:46;;;;;;;1.35;1.13;;;;;;;;;;1662102;29;21593;-57
2022/07/17 04:21:37;;;;;;;1.65;1.50;;;;;;;;;;1663272;29;21596;-57
2022/07/17 04:22:29;;;;;;;2.10;1.70;;;;;;;;;;1661776;29;22485;-57
2022/07/17 04:23:21;;;;;;;1.95;1.30;;;;;;;;;;1662196;29;22119;-58
2022/07/17 04:24:13;;;;;;;1.50;1.40;;;;;;;;;;1661500;29;22549;-58
2022/07/17 04:25:05;;;;;;;1.65;1.30;;;;;;;;;;1660356;29;22566;-58
2022/07/17 04:25:57;;;;;;;1.40;1.30;;;;;;;;;;1662407;29;21578;-58
2022/07/17 04:26:49;;;;;;;1.75;1.52;;;;;;;;;;1662285;29;21664;-58
2022/07/17 04:27:42;;;;;;;2.92;1.55;;;;;;;;;;1660892;29;21952;-58
2022/07/17 04:28:34;;;;;;;1.77;1.67;;;;;;;;;;1661125;29;21638;-58
2022/07/17 04:29:25;;;;;;;4.00;1.50;;;;;;;;;;1662046;29;21824;-58
2022/07/17 04:30:17;;;;;;;2.67;1.25;;;;;;;;;;1661937;29;21585;-59
2022/07/17 04:31:08;;;;;;;3.50;1.70;;;;;;;;;;1662242;29;22968;-57
2022/07/17 04:32:00;;;;;;;1.30;1.20;;;;;;;;;;1662584;29;22181;-58
2022/07/17 04:32:52;;;;;;;1.50;1.20;;;;;;;;;;1661829;29;21641;-59
2022/07/17 04:33:44;;;;;;;1.63;1.40;;;;;;;;;;1661875;29;21686;-58
2022/07/17 04:34:35;;;;;;;1.52;1.42;;;;;;;;;;1656406;29;21788;-59
2022/07/17 04:35:28;;;;;;;1.92;1.70;;;;;;;;;;1661121;29;22260;-58
2022/07/17 04:36:19;;;;;;;3.78;1.42;;;;;;;;;;1662332;29;21682;-57
2022/07/17 04:37:11;;;;;;;1.35;1.23;;;;;;;;;;1662418;29;21669;-58
2022/07/17 04:38:04;;;;;;;1.73;1.38;;;;;;;;;;1661253;29;22596;-58
2022/07/17 04:38:56;;;;;;;1.63;1.52;;;;;;;;;;1661786;29;22327;-58
2022/07/17 04:39:47;;;;;;;2.88;1.50;;;;;;;;;;1662478;29;21969;-58
2022/07/17 04:40:41;;;;;;;1.40;1.02;;;;;;;;;;1662452;29;22529;-58
2022/07/17 04:41:33;;;;;;;1.40;1.30;;;;;;;;;;1654499;29;21650;-58
2022/07/17 04:42:25;;;;;;;2.15;1.70;;;;;;;;;;1654877;29;21748;-58
2022/07/17 04:43:17;;;;;;;1.90;1.65;;;;;;;;;;1659832;29;21629;-58
2022/07/17 04:44:10;;;;;;;1.20;1.10;;;;;;;;;;1662843;29;21752;-58
2022/07/17 04:45:01;;;;;;;1.70;1.60;;;;;;;;;;1662457;29;21733;-57
2022/07/17 04:45:53;;;;;;;1.60;1.50;;;;;;;;;;1654514;29;22506;-58
2022/07/17 04:46:45;;;;;;;2.10;1.50;;;;;;;;;;1655566;29;21599;-58
2022/07/17 04:47:37;;;;;;;1.50;1.40;;;;;;;;;;1659842;29;22641;-58
2022/07/17 04:48:28;;;;;;;1.50;1.40;;;;;;;;;;1661422;29;21627;-59
2022/07/17 04:49:21;;;;;;;1.90;1.67;;;;;;;;;;1661706;29;21746;-58
2022/07/17 04:50:12;;;;;;;1.63;1.50;;;;;;;;;;1662388;29;21689;-58
2022/07/17 04:51:04;;;;;;;2.53;1.70;;;;;;;;;;1662142;29;22580;-58
2022/07/17 04:51:55;;;;;;;4.03;1.60;;;;;;;;;;1662840;29;21663;-58
2022/07/17 04:52:48;;;;;;;5.55;2.03;;;;;;;;;;1662039;29;21604;-58
2022/07/17 04:53:39;;;;;;;5.50;1.80;;;;;;;;;;1662149;29;21628;-59
2022/07/17 04:54:31;;;;;;;1.60;1.50;;;;;;;;;;1661425;29;21651;-58
2022/07/17 04:55:23;;;;;;;1.65;1.55;;;;;;;;;;1660906;29;22742;-59
2022/07/17 04:56:15;;;;;;;1.75;1.65;;;;;;;;;;1662242;29;21604;-57
2022/07/17 04:57:06;;;;;;;1.52;1.42;;;;;;;;;;1662377;29;21633;-58
2022/07/17 04:57:59;;;;;;;4.47;1.80;;;;;;;;;;1660907;29;21734;-58
2022/07/17 04:58:52;;;;;;;5.60;1.80;;;;;;;;;;1662226;29;21730;-58
2022/07/17 04:59:44;;;;;;;2.35;1.83;;;;;;;;;;1663753;29;22286;-58
2022/07/17 05:00:35;;;;;;;2.13;1.77;;;;;;;;;;1659956;29;21619;-59
2022/07/17 05:01:28;;;;;;;2.88;1.63;;;;;;;;;;1662091;29;21622;-59
2022/07/17 05:02:19;;;;;;;2.15;1.85;;;;;;;;;;1662297;29;21659;-57
2022/07/17 05:03:11;;;;;;;2.13;1.30;;;;;;;;;;1661671;29;21804;-58
2022/07/17 05:04:04;;;;;;;1.60;1.45;;;;;;;;;;1662280;29;22672;-59
2022/07/17 05:04:56;;;;;;;2.17;1.70;;;;;;;;;;1662238;29;21663;-58
2022/07/17 05:05:47;;;;;;;1.75;1.65;;;;;;;;;;1661595;29;21618;-58
2022/07/17 05:06:39;;;;;;;1.88;1.67;;;;;;;;;;1662416;29;21760;-59
2022/07/17 05:07:31;;;;;;;1.75;1.38;;;;;;;;;;1661873;29;21809;-57
2022/07/17 05:08:23;;;;;;;2.20;2.00;;;;;;;;;;1660983;29;21967;-58
2022/07/17 05:09:14;;;;;;;2.38;1.63;;;;;;;;;;1662191;29;21906;-58
2022/07/17 05:10:08;;;;;;;2.03;1.70;;;;;;;;;;1662090;29;22069;-58
2022/07/17 05:10:59;;;;;;;3.38;1.80;;;;;;;;;;1657580;29;22462;-58
2022/07/17 05:11:52;;;;;;;2.63;1.63;;;;;;;;;;1662028;29;21946;-58